createdAt,value
2022-10-15T00:00:22.490Z,19.29
2022-10-15T00:02:50.446Z,19.27
2022-10-15T00:05:17.892Z,19.26
2022-10-15T00:07:45.224Z,19.23
2022-10-15T00:10:12.699Z,19.23
2022-10-15T00:12:40.659Z,19.21
2022-10-15T00:15:10.166Z,19.21
2022-10-15T00:17:39.677Z,19.20
2022-10-15T00:20:11.011Z,19.18
2022-10-15T00:22:39.170Z,19.18
2022-10-15T00:25:08.437Z,19.16
2022-10-15T00:27:37.366Z,19.12
2022-10-15T00:30:07.063Z,19.02
2022-10-15T00:32:34.479Z,18.91
2022-10-15T00:35:03.360Z,18.82
2022-10-15T00:37:30.648Z,18.76
2022-10-15T00:39:57.975Z,18.71
2022-10-15T00:42:25.494Z,18.65
2022-10-15T00:44:56.730Z,18.60
2022-10-15T00:47:30.506Z,18.55
2022-10-15T00:50:08.662Z,18.48
2022-10-15T00:52:43.982Z,18.45
2022-10-15T00:55:16.978Z,18.42
2022-10-15T00:57:47.961Z,18.39
2022-10-15T01:00:17.417Z,18.31
2022-10-15T01:02:46.578Z,18.25
2022-10-15T01:05:18.244Z,18.19
2022-10-15T01:07:45.547Z,18.12
2022-10-15T01:10:13.810Z,18.10
2022-10-15T01:12:57.262Z,18.05
2022-10-15T01:15:33.659Z,18.02
2022-10-15T01:18:10.789Z,17.98
2022-10-15T01:20:52.953Z,17.92
2022-10-15T01:24:37.529Z,17.81
2022-10-15T01:27:26.438Z,17.80
2022-10-15T01:30:21.980Z,17.82
2022-10-15T01:33:35.046Z,17.90
2022-10-15T01:36:17.663Z,18.02
2022-10-15T01:38:55.807Z,18.12
2022-10-15T01:41:37.614Z,18.17
2022-10-15T01:44:11.915Z,18.20
2022-10-15T01:46:47.722Z,18.24
2022-10-15T01:49:26.137Z,18.25
2022-10-15T01:51:55.806Z,18.28
2022-10-15T01:54:27.834Z,18.31
2022-10-15T01:56:58.201Z,18.33
2022-10-15T01:59:31.225Z,18.27
2022-10-15T02:01:59.964Z,18.25
2022-10-15T02:04:30.002Z,18.29
2022-10-15T02:07:04.420Z,18.32
2022-10-15T02:09:44.226Z,18.36
2022-10-15T02:12:30.768Z,18.39
2022-10-15T02:15:06.503Z,18.45
2022-10-15T02:17:45.335Z,18.37
2022-10-15T02:20:19.943Z,18.33
2022-10-15T02:22:55.639Z,18.36
2022-10-15T02:25:25.875Z,18.40
2022-10-15T02:27:57.134Z,18.42
2022-10-15T02:30:26.737Z,18.44
2022-10-15T02:32:59.458Z,18.46
2022-10-15T02:35:28.232Z,18.46
2022-10-15T02:38:03.070Z,18.42
2022-10-15T02:40:35.889Z,18.38
2022-10-15T02:43:08.898Z,18.36
2022-10-15T02:45:36.850Z,18.35
2022-10-15T02:48:07.481Z,18.37
2022-10-15T02:50:34.821Z,18.40
2022-10-15T02:53:02.387Z,18.46
2022-10-15T02:55:29.807Z,18.51
2022-10-15T02:57:57.177Z,18.56
2022-10-15T03:00:24.934Z,18.56
2022-10-15T03:02:52.190Z,18.60
2022-10-15T03:05:20.945Z,18.66
2022-10-15T03:07:48.196Z,18.68
2022-10-15T03:10:15.621Z,18.70
2022-10-15T03:12:42.840Z,18.74
2022-10-15T03:15:10.685Z,18.78
2022-10-15T03:17:38.057Z,18.81
2022-10-15T03:20:06.410Z,18.83
2022-10-15T03:22:35.022Z,18.87
2022-10-15T03:25:02.471Z,18.87
2022-10-15T03:27:29.729Z,18.89
2022-10-15T03:29:57.108Z,18.91
2022-10-15T03:32:24.432Z,18.91
2022-10-15T03:34:51.727Z,18.90
2022-10-15T03:37:18.990Z,18.89
2022-10-15T03:39:48.083Z,18.87
2022-10-15T03:42:15.422Z,18.85
2022-10-15T03:44:42.696Z,18.82
2022-10-15T03:47:10.031Z,18.81
2022-10-15T03:49:37.304Z,18.83
2022-10-15T03:52:04.922Z,18.85
2022-10-15T03:54:32.160Z,18.85
2022-10-15T03:57:01.441Z,18.82
2022-10-15T03:59:29.084Z,18.74
2022-10-15T04:01:56.300Z,18.61
2022-10-15T04:04:23.582Z,18.52
2022-10-15T04:06:50.862Z,18.41
2022-10-15T04:09:18.158Z,18.29
2022-10-15T04:11:45.777Z,18.22
2022-10-15T04:14:14.403Z,18.14
2022-10-15T04:16:44.151Z,18.09
2022-10-15T04:19:11.521Z,18.05
2022-10-15T04:21:38.807Z,17.97
2022-10-15T04:24:06.405Z,17.95
2022-10-15T04:26:36.545Z,17.89
2022-10-15T04:29:03.973Z,17.81
2022-10-15T04:31:33.424Z,17.83
2022-10-15T04:34:00.767Z,17.87
2022-10-15T04:36:28.067Z,17.93
2022-10-15T04:38:55.493Z,17.97
2022-10-15T04:41:22.911Z,17.98
2022-10-15T04:43:50.120Z,17.99
2022-10-15T04:46:17.476Z,17.94
2022-10-15T04:48:46.055Z,17.84
2022-10-15T04:51:16.383Z,17.71
2022-10-15T04:53:44.397Z,17.59
2022-10-15T04:56:15.621Z,17.52
2022-10-15T04:58:45.052Z,17.51
2022-10-15T05:01:14.570Z,17.43
2022-10-15T05:03:45.266Z,17.49
2022-10-15T05:06:17.067Z,17.56
2022-10-15T05:08:45.155Z,17.64
2022-10-15T05:11:16.215Z,17.68
2022-10-15T05:13:43.731Z,17.71
2022-10-15T05:16:16.379Z,17.68
2022-10-15T05:18:47.650Z,17.64
2022-10-15T05:21:18.303Z,17.55
2022-10-15T05:23:47.161Z,17.49
2022-10-15T05:26:20.271Z,17.46
2022-10-15T05:28:48.093Z,17.48
2022-10-15T05:31:19.254Z,17.45
2022-10-15T05:33:47.032Z,17.43
2022-10-15T05:36:19.365Z,17.43
2022-10-15T05:38:48.774Z,17.39
2022-10-15T05:41:16.482Z,17.37
2022-10-15T05:43:46.438Z,17.33
2022-10-15T05:46:13.823Z,17.30
2022-10-15T05:48:41.112Z,17.29
2022-10-15T05:51:12.887Z,17.24
2022-10-15T05:53:43.228Z,17.24
2022-10-15T05:56:10.574Z,17.24
2022-10-15T05:58:37.992Z,17.25
2022-10-15T06:01:08.134Z,17.27
2022-10-15T06:03:36.189Z,17.32
2022-10-15T06:06:04.389Z,17.34
2022-10-15T06:08:32.287Z,17.32
2022-10-15T06:11:08.383Z,17.27
2022-10-15T06:13:39.380Z,17.30
2022-10-15T06:16:07.859Z,17.28
2022-10-15T06:18:35.920Z,17.24
2022-10-15T06:21:03.229Z,17.28
2022-10-15T06:23:30.726Z,17.28
2022-10-15T06:26:04.027Z,17.26
2022-10-15T06:28:31.877Z,17.28
2022-10-15T06:31:00.364Z,17.32
2022-10-15T06:33:28.751Z,17.33
2022-10-15T06:36:00.158Z,17.36
2022-10-15T06:38:27.427Z,17.38
2022-10-15T06:40:54.682Z,17.44
2022-10-15T06:43:23.780Z,17.49
2022-10-15T06:45:51.079Z,17.52
2022-10-15T06:48:18.557Z,17.57
2022-10-15T06:50:45.956Z,17.66
2022-10-15T06:53:13.269Z,17.70
2022-10-15T06:55:40.562Z,17.78
2022-10-15T06:58:07.865Z,17.88
2022-10-15T07:00:36.550Z,17.98
2022-10-15T07:03:05.114Z,18.00
2022-10-15T07:05:33.022Z,18.02
2022-10-15T07:08:00.997Z,18.05
2022-10-15T07:10:29.063Z,18.11
2022-10-15T07:12:56.495Z,17.98
2022-10-15T07:15:23.847Z,17.99
2022-10-15T07:18:01.378Z,18.00
2022-10-15T07:20:30.957Z,18.04
2022-10-15T07:22:59.204Z,18.08
2022-10-15T07:25:28.097Z,18.09
2022-10-15T07:27:56.251Z,18.16
2022-10-15T07:30:27.420Z,18.20
2022-10-15T07:32:57.934Z,18.23
2022-10-15T07:35:26.069Z,18.32
2022-10-15T07:37:53.579Z,18.35
2022-10-15T07:40:21.229Z,18.37
2022-10-15T07:42:54.227Z,18.37
2022-10-15T07:45:21.479Z,18.34
2022-10-15T07:47:48.763Z,18.32
2022-10-15T07:50:17.863Z,18.30
2022-10-15T07:52:45.521Z,18.31
2022-10-15T07:55:13.220Z,18.26
2022-10-15T07:57:40.773Z,18.28
2022-10-15T08:00:10.077Z,18.29
2022-10-15T08:02:37.378Z,18.34
2022-10-15T08:05:05.463Z,18.34
2022-10-15T08:07:34.071Z,18.36
2022-10-15T08:10:01.458Z,18.37
2022-10-15T08:12:28.730Z,18.44
2022-10-15T08:14:56.017Z,18.54
2022-10-15T08:17:23.303Z,18.63
2022-10-15T08:19:50.609Z,18.71
2022-10-15T08:22:17.931Z,18.83
2022-10-15T08:24:46.661Z,18.92
2022-10-15T08:27:14.238Z,19.03
2022-10-15T08:29:41.456Z,19.12
2022-10-15T08:32:08.675Z,19.26
2022-10-15T08:34:35.953Z,19.33
2022-10-15T08:37:03.633Z,19.32
2022-10-15T08:39:31.230Z,19.42
2022-10-15T08:42:05.861Z,19.61
2022-10-15T08:44:43.557Z,19.96
2022-10-15T08:47:27.066Z,20.53
2022-10-15T08:49:58.425Z,20.74
2022-10-15T08:52:39.286Z,20.68
2022-10-15T08:55:10.056Z,20.73
2022-10-15T08:57:46.576Z,20.74
2022-10-15T09:00:19.929Z,20.69
2022-10-15T09:02:58.209Z,20.68
2022-10-15T09:05:38.081Z,20.58
2022-10-15T09:08:27.637Z,20.49
2022-10-15T09:11:02.582Z,20.44
2022-10-15T09:13:40.273Z,20.49
2022-10-15T09:16:16.608Z,20.24
2022-10-15T09:18:49.915Z,20.19
2022-10-15T09:21:17.516Z,20.23
2022-10-15T09:23:45.335Z,20.21
2022-10-15T09:26:27.068Z,20.28
2022-10-15T09:29:06.731Z,20.24
2022-10-15T09:31:46.639Z,20.23
2022-10-15T09:34:27.552Z,20.29
2022-10-15T09:37:02.246Z,20.14
2022-10-15T09:39:48.016Z,19.90
2022-10-15T09:42:30.671Z,19.86
2022-10-15T09:45:04.408Z,19.81
2022-10-15T09:47:34.620Z,19.95
2022-10-15T09:50:04.973Z,20.01
2022-10-15T09:53:00.499Z,20.04
2022-10-15T09:55:41.131Z,20.19
2022-10-15T09:58:18.141Z,20.33
2022-10-15T10:01:00.995Z,20.35
2022-10-15T10:03:31.156Z,20.44
2022-10-15T10:06:06.329Z,20.67
2022-10-15T10:08:39.246Z,21.03
2022-10-15T10:11:11.080Z,21.46
2022-10-15T10:13:44.975Z,21.96
2022-10-15T10:16:17.741Z,22.44
2022-10-15T10:19:03.107Z,22.74
2022-10-15T10:21:33.968Z,22.81
2022-10-15T10:24:21.710Z,22.84
2022-10-15T10:26:49.236Z,22.89
2022-10-15T10:29:33.547Z,22.72
2022-10-15T10:32:18.224Z,22.45
2022-10-15T10:34:50.174Z,22.33
2022-10-15T10:37:20.529Z,22.27
2022-10-15T10:39:53.945Z,22.21
2022-10-15T10:42:35.354Z,22.10
2022-10-15T10:45:23.117Z,22.03
2022-10-15T10:47:51.866Z,22.11
2022-10-15T10:50:35.351Z,22.27
2022-10-15T10:53:22.059Z,22.29
2022-10-15T10:55:51.924Z,22.36
2022-10-15T10:58:26.277Z,22.44
2022-10-15T11:00:58.166Z,22.71
2022-10-15T11:03:37.341Z,23.38
2022-10-15T11:06:24.448Z,23.69
2022-10-15T11:09:08.438Z,23.58
2022-10-15T11:12:00.872Z,23.41
2022-10-15T11:14:45.121Z,23.13
2022-10-15T11:17:27.742Z,22.80
2022-10-15T11:23:15.623Z,22.68
2022-10-15T11:25:57.754Z,22.92
2022-10-15T11:28:48.755Z,22.99
2022-10-15T11:31:29.583Z,23.08
2022-10-15T11:34:21.684Z,22.92
2022-10-15T11:37:25.195Z,22.70
2022-10-15T11:40:13.864Z,22.73
2022-10-15T11:42:55.836Z,22.67
2022-10-15T11:46:00.147Z,22.56
2022-10-15T11:48:46.247Z,22.48
2022-10-15T11:51:29.027Z,22.46
2022-10-15T11:54:23.214Z,22.35
2022-10-15T11:56:54.178Z,22.50
2022-10-15T11:59:35.840Z,22.58
2022-10-15T12:02:11.818Z,22.79
2022-10-15T12:04:44.164Z,22.79
2022-10-15T12:07:18.499Z,22.68
2022-10-15T12:09:52.352Z,22.60
2022-10-15T12:12:35.905Z,22.54
2022-10-15T12:15:24.246Z,22.52
2022-10-15T12:18:01.123Z,22.55
2022-10-15T12:20:29.028Z,22.56
2022-10-15T12:23:00.423Z,22.61
2022-10-15T12:25:45.252Z,22.55
2022-10-15T12:28:23.235Z,22.44
2022-10-15T12:31:00.363Z,22.30
2022-10-15T12:33:39.252Z,22.25
2022-10-15T12:36:25.056Z,22.44
2022-10-15T12:38:59.083Z,22.52
2022-10-15T12:41:40.413Z,22.66
2022-10-15T12:44:20.338Z,22.81
2022-10-15T12:46:48.331Z,22.96
2022-10-15T12:49:56.687Z,23.00
2022-10-15T12:53:01.246Z,22.92
2022-10-15T12:55:33.932Z,22.63
2022-10-15T12:58:26.543Z,22.61
2022-10-15T13:00:53.910Z,22.66
2022-10-15T13:03:41.687Z,22.78
2022-10-15T13:06:26.965Z,22.72
2022-10-15T13:09:02.852Z,22.76
2022-10-15T13:11:35.497Z,22.69
2022-10-15T13:14:26.861Z,22.68
2022-10-15T13:16:56.015Z,22.76
2022-10-15T13:19:28.077Z,22.73
2022-10-15T13:21:58.975Z,22.77
2022-10-15T13:24:29.919Z,22.72
2022-10-15T13:27:00.610Z,22.60
2022-10-15T13:29:29.530Z,22.58
2022-10-15T13:31:57.976Z,22.58
2022-10-15T13:34:30.193Z,22.54
2022-10-15T13:37:01.714Z,22.43
2022-10-15T13:39:35.481Z,22.44
2022-10-15T13:42:10.145Z,22.33
2022-10-15T13:44:39.182Z,22.19
2022-10-15T13:47:27.044Z,22.17
2022-10-15T13:50:22.975Z,22.13
2022-10-15T13:52:56.958Z,22.12
2022-10-15T13:55:28.481Z,22.18
2022-10-15T13:58:02.052Z,22.23
2022-10-15T14:00:36.401Z,21.98
2022-10-15T14:03:23.965Z,21.65
2022-10-15T14:05:55.037Z,21.50
2022-10-15T14:08:28.696Z,21.35
2022-10-15T14:10:59.737Z,21.30
2022-10-15T14:13:28.334Z,21.31
2022-10-15T14:16:14.333Z,21.28
2022-10-15T14:18:49.006Z,21.31
2022-10-15T14:21:20.431Z,21.32
2022-10-15T14:23:49.899Z,21.30
2022-10-15T14:26:24.731Z,21.26
2022-10-15T14:28:52.796Z,21.29
2022-10-15T14:31:37.204Z,21.25
2022-10-15T14:34:05.261Z,21.20
2022-10-15T14:36:42.034Z,21.11
2022-10-15T14:39:29.391Z,21.07
2022-10-15T14:42:02.354Z,21.11
2022-10-15T14:44:44.868Z,21.13
2022-10-15T14:47:22.883Z,21.14
2022-10-15T14:49:55.135Z,21.15
2022-10-15T14:52:23.106Z,21.17
2022-10-15T14:55:07.205Z,21.13
2022-10-15T14:57:40.161Z,21.08
2022-10-15T15:03:17.441Z,21.03
2022-10-15T15:05:47.993Z,20.97
2022-10-15T15:08:15.592Z,20.86
2022-10-15T15:10:44.640Z,20.90
2022-10-15T15:13:16.799Z,20.94
2022-10-15T15:15:44.104Z,20.95
2022-10-15T15:18:13.656Z,20.98
2022-10-15T15:20:43.774Z,21.02
2022-10-15T15:23:17.866Z,21.04
2022-10-15T15:25:46.347Z,21.05
2022-10-15T15:28:15.736Z,21.07
2022-10-15T15:30:45.157Z,21.08
2022-10-15T15:33:16.101Z,21.00
2022-10-15T15:35:51.933Z,21.01
2022-10-15T15:38:20.865Z,20.95
2022-10-15T15:40:49.275Z,20.89
2022-10-15T15:43:19.143Z,20.91
2022-10-15T15:45:47.621Z,20.86
2022-10-15T15:48:17.087Z,20.83
2022-10-15T15:50:44.502Z,20.77
2022-10-15T15:53:13.008Z,20.72
2022-10-15T15:55:40.404Z,20.71
2022-10-15T15:58:07.800Z,20.72
2022-10-15T16:00:35.096Z,20.72
2022-10-15T16:03:02.434Z,20.75
2022-10-15T16:05:31.087Z,20.81
2022-10-15T16:07:58.362Z,20.83
2022-10-15T16:10:25.890Z,20.87
2022-10-15T16:12:53.244Z,20.88
2022-10-15T16:15:21.082Z,20.87
2022-10-15T16:17:48.437Z,20.89
2022-10-15T16:20:16.059Z,20.94
2022-10-15T16:22:44.734Z,20.99
2022-10-15T16:25:12.098Z,21.00
2022-10-15T16:27:39.420Z,20.99
2022-10-15T16:30:08.274Z,20.93
2022-10-15T16:32:35.531Z,20.93
2022-10-15T16:35:02.816Z,20.93
2022-10-15T16:37:30.071Z,20.91
2022-10-15T16:39:58.704Z,20.89
2022-10-15T16:42:26.058Z,20.87
2022-10-15T16:44:53.344Z,20.93
2022-10-15T16:47:23.838Z,20.99
2022-10-15T16:49:51.357Z,21.04
2022-10-15T16:52:18.658Z,21.01
2022-10-15T16:54:45.992Z,21.04
2022-10-15T16:57:14.790Z,21.08
2022-10-15T16:59:42.126Z,21.18
2022-10-15T17:02:10.029Z,21.24
2022-10-15T17:04:37.516Z,21.30
2022-10-15T17:07:04.901Z,21.36
2022-10-15T17:09:32.369Z,21.40
2022-10-15T17:11:59.630Z,21.45
2022-10-15T17:14:28.401Z,21.45
2022-10-15T17:16:56.087Z,21.36
2022-10-15T17:19:28.959Z,21.31
2022-10-15T17:21:59.249Z,21.28
2022-10-15T17:24:26.525Z,21.29
2022-10-15T17:26:54.748Z,21.25
2022-10-15T17:29:25.416Z,21.24
2022-10-15T17:31:55.214Z,21.24
2022-10-15T17:34:22.529Z,21.24
2022-10-15T17:36:49.889Z,21.23
2022-10-15T17:39:20.447Z,21.22
2022-10-15T17:41:49.640Z,21.20
2022-10-15T17:44:16.958Z,21.20
2022-10-15T17:46:44.320Z,21.21
2022-10-15T17:49:18.135Z,21.22
2022-10-15T17:51:46.407Z,21.23
2022-10-15T17:54:13.934Z,21.25
2022-10-15T17:56:41.243Z,21.23
2022-10-15T17:59:11.488Z,21.22
2022-10-15T18:01:58.817Z,21.19
2022-10-15T18:04:29.877Z,21.12
2022-10-15T18:06:57.324Z,21.07
2022-10-15T18:09:25.346Z,21.04
2022-10-15T18:11:52.650Z,21.04
2022-10-15T18:16:48.309Z,21.04
2022-10-15T18:19:15.573Z,20.99
2022-10-15T18:21:48.550Z,20.98
2022-10-15T18:24:21.376Z,20.96
2022-10-15T18:26:49.869Z,20.95
2022-10-15T18:29:17.203Z,20.93
2022-10-15T18:31:44.502Z,20.91
2022-10-15T18:34:11.754Z,20.88
2022-10-15T18:36:41.574Z,20.86
2022-10-15T18:39:11.235Z,20.84
2022-10-15T18:41:40.185Z,20.81
2022-10-15T18:44:15.823Z,20.80
2022-10-15T18:46:45.024Z,20.80
2022-10-15T18:49:15.346Z,20.82
2022-10-15T18:51:45.799Z,20.79
2022-10-15T18:54:15.363Z,20.78
2022-10-15T18:56:42.802Z,20.81
2022-10-15T18:59:10.089Z,20.88
2022-10-15T19:01:44.348Z,20.90
2022-10-15T19:04:14.990Z,20.88
2022-10-15T19:06:45.383Z,20.89
2022-10-15T19:09:17.598Z,20.91
2022-10-15T19:11:48.991Z,20.96
2022-10-15T19:14:16.836Z,20.94
2022-10-15T19:16:44.846Z,20.94
2022-10-15T19:19:16.091Z,20.95
2022-10-15T19:21:43.867Z,20.93
2022-10-15T19:24:11.421Z,20.93
2022-10-15T19:26:40.680Z,20.91
2022-10-15T19:29:07.991Z,20.92
2022-10-15T19:31:39.844Z,20.93
2022-10-15T19:34:07.802Z,20.94
2022-10-15T19:36:38.446Z,20.93
2022-10-15T19:39:08.426Z,20.93
2022-10-15T19:41:38.062Z,20.91
2022-10-15T19:44:08.239Z,20.88
2022-10-15T19:46:36.189Z,20.85
2022-10-15T19:49:05.035Z,20.83
2022-10-15T19:51:32.488Z,20.81
2022-10-15T19:54:00.209Z,20.79
2022-10-15T19:56:28.639Z,20.75
2022-10-15T19:58:57.853Z,20.75
2022-10-15T20:01:28.334Z,20.72
2022-10-15T20:04:01.657Z,20.71
2022-10-15T20:06:32.795Z,20.69
2022-10-15T20:09:00.470Z,20.67
2022-10-15T20:11:27.996Z,20.67
2022-10-15T20:13:55.356Z,20.64
2022-10-15T20:16:23.686Z,20.61
2022-10-15T20:18:52.959Z,20.59
2022-10-15T20:21:20.303Z,20.58
2022-10-15T20:23:47.965Z,20.58
2022-10-15T20:26:16.518Z,20.59
2022-10-15T20:28:46.701Z,20.56
2022-10-15T20:31:17.082Z,20.55
2022-10-15T20:33:45.015Z,20.53
2022-10-15T20:36:22.644Z,20.51
2022-10-15T20:38:51.567Z,20.52
2022-10-15T20:41:19.954Z,20.50
2022-10-15T20:43:53.809Z,20.43
2022-10-15T20:46:27.975Z,20.43
2022-10-15T20:48:58.513Z,20.43
2022-10-15T20:51:28.625Z,20.42
2022-10-15T20:53:59.040Z,20.39
2022-10-15T20:56:26.370Z,20.37
2022-10-15T20:58:53.915Z,20.37
2022-10-15T21:01:21.383Z,20.37
2022-10-15T21:03:48.642Z,20.35
2022-10-15T21:06:16.124Z,20.29
2022-10-15T21:08:44.949Z,20.17
2022-10-15T21:11:12.303Z,20.12
2022-10-15T21:13:39.654Z,20.05
2022-10-15T21:16:08.909Z,20.04
2022-10-15T21:18:37.391Z,20.02
2022-10-15T21:21:07.289Z,19.97
2022-10-15T21:23:35.466Z,19.96
2022-10-15T21:26:08.989Z,19.94
2022-10-15T21:28:37.243Z,19.95
2022-10-15T21:31:07.076Z,19.97
2022-10-15T21:33:36.091Z,19.93
2022-10-15T21:36:14.418Z,19.87
2022-10-15T21:38:42.610Z,19.85
2022-10-15T21:41:11.245Z,19.80
2022-10-15T21:43:38.696Z,19.77
2022-10-15T21:46:08.469Z,19.72
2022-10-15T21:48:36.726Z,19.67
2022-10-15T21:51:05.295Z,19.63
2022-10-15T21:53:33.657Z,19.61
2022-10-15T21:56:02.148Z,19.61
2022-10-15T21:58:30.912Z,19.60
2022-10-15T22:01:06.614Z,19.57
2022-10-15T22:03:33.898Z,19.55
2022-10-15T22:06:01.296Z,19.52
2022-10-15T22:08:29.102Z,19.52
2022-10-15T22:11:07.437Z,19.48
2022-10-15T22:13:36.305Z,19.46
2022-10-15T22:16:04.774Z,19.42
2022-10-15T22:18:32.074Z,19.38
2022-10-15T22:21:10.320Z,19.32
2022-10-15T22:23:37.659Z,19.31
2022-10-15T22:26:05.207Z,19.31
2022-10-15T22:28:32.534Z,19.31
2022-10-15T22:31:05.227Z,19.26
2022-10-15T22:33:33.801Z,19.24
2022-10-15T22:36:02.127Z,19.23
2022-10-15T22:38:29.522Z,19.22
2022-10-15T22:40:57.255Z,19.23
2022-10-15T22:43:25.206Z,19.19
2022-10-15T22:45:52.594Z,19.17
2022-10-15T22:48:21.345Z,19.14
2022-10-15T22:50:56.194Z,19.12
2022-10-15T22:53:24.055Z,19.15
2022-10-15T22:55:56.588Z,19.10
2022-10-15T22:58:24.430Z,19.13
2022-10-15T23:00:52.712Z,19.11
2022-10-15T23:03:22.356Z,19.11
2022-10-15T23:05:56.209Z,19.04
2022-10-15T23:08:23.832Z,19.02
2022-10-15T23:10:51.173Z,19.02
2022-10-15T23:13:18.485Z,19.02
2022-10-15T23:15:45.807Z,18.97
2022-10-15T23:18:13.180Z,18.99
2022-10-15T23:20:41.901Z,18.98
2022-10-15T23:23:09.149Z,18.97
2022-10-15T23:25:39.613Z,18.92
2022-10-15T23:28:06.954Z,18.92
2022-10-15T23:30:34.303Z,18.97
2022-10-15T23:33:02.866Z,18.98
2022-10-15T23:35:30.249Z,18.98
2022-10-15T23:37:58.889Z,18.99
2022-10-15T23:40:26.170Z,18.94
2022-10-15T23:42:54.564Z,18.92
2022-10-15T23:45:21.972Z,18.95
2022-10-15T23:47:49.327Z,18.93
2022-10-15T23:50:17.544Z,18.90
2022-10-15T23:52:44.842Z,18.82
2022-10-15T23:55:13.815Z,18.79
2022-10-15T23:57:41.028Z,18.77
